Flight Track Log - Related Links

Times and Time Zones

All times are in EDT time to prevent confusion due to time zone crossing. See the ARG1305 flight status page for this flight to view local times or setup timezone preferences in your user account.

Time Position Orientation Groundspeed Altitude Reporting Facility
EDT Latitude Longitude Course Direction KTS MPH feet Rate Location/Type
Wed 07:11:10 PM 25.7822 -80.3294 268° West 156 180 700  Level Miami Center
Wed 07:12:05 PM 25.7811 -80.3756 268° West 159 183 1,800 878 Climbing Miami Center
Wed 07:13:13 PM 25.7467 -80.4206 230° Southwest 240 276 2,500 974 Climbing Miami Center
Wed 07:14:02 PM 25.6906 -80.4028 164° South 306 352 3,700 1,780 Climbing Miami Center
Wed 07:14:44 PM 25.6503 -80.3486 130° Southeast 304 350 5,200 2,059 Climbing Miami Center
Wed 07:15:44 PM 25.5892 -80.2825 136° Southeast 304 350 7,200 1,950 Climbing Miami Center
Wed 07:16:44 PM 25.5217 -80.2161 138° Southeast 315 362 9,100 1,650 Climbing Miami Center
Wed 07:17:44 PM 25.4544 -80.1450 136° Southeast 327 376 10,500 1,050 Climbing Miami Center
Wed 07:18:44 PM 25.3786 -80.0694 138° Southeast 346 398 11,200 1,000 Climbing Miami Center
Wed 07:19:44 PM 25.2753 -80.0208 157° South 374 430 12,500 1,350 Climbing Miami Center
Wed 07:20:44 PM 25.1675 -79.9814 162° South 394 453 13,900 1,500 Climbing Miami Center
Wed 07:21:44 PM 25.0578 -79.9394 161° South 412 474 15,500 1,364 Climbing Miami Center
Wed 07:22:56 PM 24.9436 -79.8978 162° South 418 481 16,900 1,318 Climbing Miami Center
Wed 07:23:56 PM 24.8067 -79.8439 160° South 431 496 18,400 1,500 Climbing Miami Center
Wed 07:24:56 PM 24.6864 -79.8000 162° South 443 510 19,900 1,400 Climbing Miami Center
Wed 07:25:56 PM 24.5664 -79.7514 160° South 448 516 21,200 1,250 Climbing Miami Center
Wed 07:26:56 PM 24.4439 -79.7097 163° South 453 521 22,400 1,200 Climbing Miami Center
Wed 07:27:56 PM 24.3236 -79.6592 159° South 461 531 23,600 1,050 Climbing Miami Center
Wed 07:28:56 PM 24.2158 -79.6158 160° South 461 531 24,500 950 Climbing Miami Center
Wed 07:29:56 PM 24.0936 -79.5583 157° South 467 537 25,500 900 Climbing Miami Center
Wed 07:30:56 PM 23.9714 -79.4989 156° South 472 543 26,300 800 Climbing Miami Center
Wed 07:32:00 PM 23.8446 -79.4365 156° South  Level FlightAware Approximate
Wed 07:39:00 PM 23.0049 -79.0451 159° South  Level FlightAware Approximate
Wed 07:40:00 PM 22.8832 -78.9943 159° South  Level FlightAware Approximate
Wed 07:41:00 PM 22.7615 -78.9436 159° South  Level FlightAware Approximate
Wed 07:42:00 PM 22.6398 -78.8929 159° South  Level FlightAware Approximate
Wed 07:43:00 PM 22.5186 -78.8409 158° South  Level FlightAware Approximate
Wed 07:44:00 PM 22.3976 -78.7885 158° South  Level FlightAware Approximate
Wed 07:45:00 PM 22.2765 -78.7362 158° South  Level FlightAware Approximate
Wed 07:46:00 PM 22.1554 -78.6840 158° South  Level FlightAware Approximate
Wed 07:47:00 PM 22.0343 -78.6319 158° South  Level FlightAware Approximate
Wed 07:48:00 PM 21.9132 -78.5799 158° South  Level FlightAware Approximate
Wed 07:49:00 PM 21.7921 -78.5280 158° South  Level FlightAware Approximate
Wed 07:50:00 PM 21.6709 -78.4762 158° South  Level FlightAware Approximate
Wed 07:51:00 PM 21.5498 -78.4244 158° South  Level FlightAware Approximate
Wed 07:52:00 PM 21.4286 -78.3728 158° South  Level FlightAware Approximate
Wed 07:53:00 PM 21.3074 -78.3212 158° South  Level FlightAware Approximate
Wed 07:54:00 PM 21.1862 -78.2697 158° South  Level FlightAware Approximate
Wed 07:55:00 PM 21.0650 -78.2183 158° South  Level FlightAware Approximate
Wed 07:56:00 PM 20.9459 -78.1679 158° South  Level FlightAware Approximate
Wed 07:57:00 PM 20.8269 -78.1176 158° South  Level FlightAware Approximate
Wed 07:58:00 PM 20.7078 -78.0674 158° South  Level FlightAware Approximate
Wed 07:59:00 PM 20.5887 -78.0173 158° South  Level FlightAware Approximate
Wed 08:00:00 PM 20.4696 -77.9672 159° South  Level FlightAware Approximate
Wed 08:01:00 PM 20.3505 -77.9172 159° South  Level FlightAware Approximate
Wed 08:02:00 PM 20.2313 -77.8673 159° South  Level FlightAware Approximate
Wed 08:03:00 PM 20.1122 -77.8174 159° South  Level FlightAware Approximate
Wed 08:04:00 PM 19.9930 -77.7676 159° South  Level FlightAware Approximate
Wed 08:05:00 PM 19.8739 -77.7180 159° South  Level FlightAware Approximate
Wed 08:06:00 PM 19.7547 -77.6683 159° South  Level FlightAware Approximate
Wed 08:07:00 PM 19.6355 -77.6188 159° South  Level FlightAware Approximate
Wed 08:08:00 PM 19.5153 -77.5722 163° South  Level FlightAware Approximate
Wed 08:09:00 PM 19.3928 -77.5328 163° South  Level FlightAware Approximate
Wed 08:10:00 PM 19.2703 -77.4935 163° South  Level FlightAware Approximate
Wed 08:11:00 PM 19.1478 -77.4543 163° South  Level FlightAware Approximate
Wed 08:12:00 PM 19.0252 -77.4151 163° South  Level FlightAware Approximate
Wed 08:13:00 PM 18.9027 -77.3759 163° South  Level FlightAware Approximate
Wed 08:14:00 PM 18.7802 -77.3369 163° South  Level FlightAware Approximate
Wed 08:15:00 PM 18.6576 -77.2979 163° South  Level FlightAware Approximate
Wed 08:16:00 PM 18.5350 -77.2589 163° South  Level FlightAware Approximate
Wed 08:17:00 PM 18.4125 -77.2200 163° South  Level FlightAware Approximate
Wed 08:18:00 PM 18.2899 -77.1811 163° South  Level FlightAware Approximate
Wed 08:19:00 PM 18.1673 -77.1423 163° South  Level FlightAware Approximate
Wed 08:20:00 PM 18.0447 -77.1036 163° South  Level FlightAware Approximate
Wed 08:21:00 PM 17.9222 -77.0646 163° South  Level FlightAware Approximate
Wed 08:22:00 PM 17.7997 -77.0257 163° South  Level FlightAware Approximate
Wed 08:23:00 PM 17.6772 -76.9868 163° South  Level FlightAware Approximate
Wed 08:24:00 PM 17.5546 -76.9479 163° South  Level FlightAware Approximate
Wed 08:25:00 PM 17.4321 -76.9092 163° South  Level FlightAware Approximate
Wed 08:26:00 PM 17.3095 -76.8704 163° South  Level FlightAware Approximate
Wed 08:27:00 PM 17.1870 -76.8317 163° South  Level FlightAware Approximate
Wed 08:28:00 PM 17.0644 -76.7931 163° South  Level FlightAware Approximate
Wed 08:29:00 PM 16.9418 -76.7545 163° South  Level FlightAware Approximate
Wed 08:30:00 PM 16.8192 -76.7160 163° South  Level FlightAware Approximate
Wed 08:31:00 PM 16.6967 -76.6775 163° South  Level FlightAware Approximate
Wed 08:32:00 PM 16.5741 -76.6391 163° South  Level FlightAware Approximate
Wed 08:33:00 PM 16.4515 -76.6007 163° South  Level FlightAware Approximate
Wed 08:34:00 PM 16.3289 -76.5624 163° South  Level FlightAware Approximate
Wed 08:35:00 PM 16.2062 -76.5241 163° South  Level FlightAware Approximate
Wed 08:36:00 PM 16.0836 -76.4858 163° South  Level FlightAware Approximate
Wed 08:37:00 PM 15.9610 -76.4476 163° South  Level FlightAware Approximate
Wed 08:38:00 PM 15.8384 -76.4095 163° South  Level FlightAware Approximate
Wed 08:39:00 PM 15.7157 -76.3714 163° South  Level FlightAware Approximate
Wed 08:40:00 PM 15.5931 -76.3333 163° South  Level FlightAware Approximate
Wed 08:41:00 PM 15.4704 -76.2953 163° South  Level FlightAware Approximate
Wed 08:42:00 PM 15.3477 -76.2574 163° South  Level FlightAware Approximate
Wed 08:43:00 PM 15.2251 -76.2195 163° South  Level FlightAware Approximate
Wed 08:44:00 PM 15.1024 -76.1816 163° South  Level FlightAware Approximate
Wed 08:45:00 PM 14.9797 -76.1438 164° South  Level FlightAware Approximate
Wed 08:46:00 PM 14.8569 -76.1063 164° South  Level FlightAware Approximate
Wed 08:47:00 PM 14.7342 -76.0689 164° South  Level FlightAware Approximate
Wed 08:48:00 PM 14.6114 -76.0315 164° South  Level FlightAware Approximate
Wed 08:49:00 PM 14.4886 -75.9941 164° South  Level FlightAware Approximate
Wed 08:50:00 PM 14.3658 -75.9568 164° South  Level FlightAware Approximate
Wed 08:51:00 PM 14.2430 -75.9195 164° South  Level FlightAware Approximate
Wed 08:52:00 PM 14.1202 -75.8823 164° South  Level FlightAware Approximate
Wed 08:53:00 PM 13.9973 -75.8451 164° South  Level FlightAware Approximate
Wed 08:54:00 PM 13.8745 -75.8080 164° South  Level FlightAware Approximate
Wed 08:55:00 PM 13.7517 -75.7709 164° South  Level FlightAware Approximate
Wed 08:56:00 PM 13.6289 -75.7338 164° South  Level FlightAware Approximate
Wed 08:57:00 PM 13.5060 -75.6967 164° South  Level FlightAware Approximate
Wed 08:58:00 PM 13.3832 -75.6598 164° South  Level FlightAware Approximate
Wed 08:59:00 PM 13.2603 -75.6228 164° South  Level FlightAware Approximate
Wed 09:00:00 PM 13.1375 -75.5859 164° South  Level FlightAware Approximate
Wed 09:01:00 PM 13.0146 -75.5490 164° South  Level FlightAware Approximate
Wed 09:02:00 PM 12.8918 -75.5121 164° South  Level FlightAware Approximate
Wed 09:03:00 PM 12.7689 -75.4753 164° South  Level FlightAware Approximate
Wed 09:04:00 PM 12.6460 -75.4386 164° South  Level FlightAware Approximate
Wed 09:05:00 PM 12.5231 -75.4018 164° South  Level FlightAware Approximate
Wed 09:06:00 PM 12.4003 -75.3651 164° South  Level FlightAware Approximate
Wed 09:07:00 PM 12.2774 -75.3284 164° South  Level FlightAware Approximate
Wed 09:08:00 PM 12.1545 -75.2918 164° South  Level FlightAware Approximate
Wed 09:09:00 PM 12.0316 -75.2552 164° South  Level FlightAware Approximate
Wed 09:10:00 PM 11.9087 -75.2186 164° South  Level FlightAware Approximate
Wed 09:11:00 PM 11.7858 -75.1821 164° South  Level FlightAware Approximate
Wed 09:12:00 PM 11.6629 -75.1456 164° South  Level FlightAware Approximate
Wed 09:13:00 PM 11.5399 -75.1091 164° South  Level FlightAware Approximate
Wed 09:14:00 PM 11.4170 -75.0727 164° South  Level FlightAware Approximate
Wed 09:15:00 PM 11.2941 -75.0363 164° South  Level FlightAware Approximate
Wed 09:16:00 PM 11.1712 -74.9999 164° South  Level FlightAware Approximate
Wed 09:17:00 PM 11.0482 -74.9635 164° South  Level FlightAware Approximate
Wed 09:18:00 PM 10.9253 -74.9272 164° South  Level FlightAware Approximate
Wed 09:19:00 PM 10.8023 -74.8909 164° South  Level FlightAware Approximate
Wed 09:20:00 PM 10.6794 -74.8547 164° South  Level FlightAware Approximate
Wed 09:21:00 PM 10.5564 -74.8185 164° South  Level FlightAware Approximate
Wed 09:22:00 PM 10.4335 -74.7823 164° South  Level FlightAware Approximate
Wed 09:23:00 PM 10.3105 -74.7461 164° South  Level FlightAware Approximate
Wed 09:24:00 PM 10.1875 -74.7100 164° South  Level FlightAware Approximate
Wed 09:25:00 PM 10.0646 -74.6738 164° South  Level FlightAware Approximate
Wed 09:26:00 PM 9.9416 -74.6377 164° South  Level FlightAware Approximate
Wed 09:27:00 PM 9.8186 -74.6017 164° South  Level FlightAware Approximate
Wed 09:28:00 PM 9.6957 -74.5657 164° South  Level FlightAware Approximate
Wed 09:29:00 PM 9.5727 -74.5296 164° South  Level FlightAware Approximate
Wed 09:30:00 PM 9.4497 -74.4937 164° South  Level FlightAware Approximate
Wed 09:31:00 PM 9.3267 -74.4577 164° South  Level FlightAware Approximate
Wed 09:32:00 PM 9.2037 -74.4218 164° South  Level FlightAware Approximate
Wed 09:33:00 PM 9.0807 -74.3859 164° South  Level FlightAware Approximate
Wed 09:34:00 PM 8.9577 -74.3500 164° South  Level FlightAware Approximate
Wed 09:35:00 PM 8.8347 -74.3142 164° South  Level FlightAware Approximate
Wed 09:36:00 PM 8.7117 -74.2783 164° South  Level FlightAware Approximate
Wed 09:37:00 PM 8.5887 -74.2425 164° South  Level FlightAware Approximate
Wed 09:38:00 PM 8.4656 -74.2067 164° South  Level FlightAware Approximate
Wed 09:39:00 PM 8.3426 -74.1710 164° South  Level FlightAware Approximate
Wed 09:40:00 PM 8.2196 -74.1352 164° South  Level FlightAware Approximate
Wed 09:41:00 PM 8.0966 -74.0995 164° South  Level FlightAware Approximate
Wed 09:42:00 PM 7.9735 -74.0639 165° South  Level FlightAware Approximate
Wed 09:43:00 PM 7.8500 -74.0298 165° South  Level FlightAware Approximate
Wed 09:44:00 PM 7.7266 -73.9957 165° South  Level FlightAware Approximate
Wed 09:45:00 PM 7.6031 -73.9616 165° South  Level FlightAware Approximate
Wed 09:46:00 PM 7.4797 -73.9276 165° South  Level FlightAware Approximate
Wed 09:47:00 PM 7.3562 -73.8935 165° South  Level FlightAware Approximate
Wed 09:48:00 PM 7.2327 -73.8595 165° South  Level FlightAware Approximate
Wed 09:49:00 PM 7.1092 -73.8255 165° South  Level FlightAware Approximate
Wed 09:50:00 PM 6.9857 -73.7919 165° South  Level FlightAware Approximate
Wed 09:51:00 PM 6.8618 -73.7593 165° South  Level FlightAware Approximate
Wed 09:52:00 PM 6.7379 -73.7268 165° South  Level FlightAware Approximate
Wed 09:53:00 PM 6.6140 -73.6944 165° South  Level FlightAware Approximate
Wed 09:54:00 PM 6.4902 -73.6619 165° South  Level FlightAware Approximate
Wed 09:55:00 PM 6.3663 -73.6294 165° South  Level FlightAware Approximate
Wed 09:56:00 PM 6.2424 -73.5970 165° South  Level FlightAware Approximate
Wed 09:57:00 PM 6.1185 -73.5646 165° South  Level FlightAware Approximate
Wed 09:58:00 PM 5.9946 -73.5322 165° South  Level FlightAware Approximate
Wed 09:59:00 PM 5.8708 -73.4998 165° South  Level FlightAware Approximate
Wed 10:00:00 PM 5.7469 -73.4674 165° South  Level FlightAware Approximate
Wed 10:01:00 PM 5.6230 -73.4351 165° South  Level FlightAware Approximate
Wed 10:02:00 PM 5.4991 -73.4027 165° South  Level FlightAware Approximate
Wed 10:03:00 PM 5.3752 -73.3704 165° South  Level FlightAware Approximate
Wed 10:04:00 PM 5.2513 -73.3381 165° South  Level FlightAware Approximate
Wed 10:05:00 PM 5.1274 -73.3058 165° South  Level FlightAware Approximate
Wed 10:06:00 PM 5.0035 -73.2735 165° South  Level FlightAware Approximate
Wed 10:07:00 PM 4.8796 -73.2412 165° South  Level FlightAware Approximate
Wed 10:08:00 PM 4.7557 -73.2089 165° South  Level FlightAware Approximate
Wed 10:09:00 PM 4.6318 -73.1767 165° South  Level FlightAware Approximate
Wed 10:10:00 PM 4.5079 -73.1444 165° South  Level FlightAware Approximate
Wed 10:11:00 PM 4.3840 -73.1122 165° South  Level FlightAware Approximate
Wed 10:12:00 PM 4.2601 -73.0799 165° South  Level FlightAware Approximate
Wed 10:13:00 PM 4.1362 -73.0477 165° South  Level FlightAware Approximate
Wed 10:14:00 PM 4.0123 -73.0155 166° South  Level FlightAware Approximate
Wed 10:15:00 PM 3.8883 -72.9838 166° South  Level FlightAware Approximate
Wed 10:16:00 PM 3.7642 -72.9521 166° South  Level FlightAware Approximate
Wed 10:17:00 PM 3.6402 -72.9203 166° South  Level FlightAware Approximate
Wed 10:18:00 PM 3.5162 -72.8886 166° South  Level FlightAware Approximate
Wed 10:19:00 PM 3.3921 -72.8569 166° South  Level FlightAware Approximate
Wed 10:20:00 PM 3.2681 -72.8252 166° South  Level FlightAware Approximate
Wed 10:21:00 PM 3.1441 -72.7935 166° South  Level FlightAware Approximate
Wed 10:22:00 PM 3.0201 -72.7618 166° South  Level FlightAware Approximate
Wed 10:23:00 PM 2.8960 -72.7302 166° South  Level FlightAware Approximate
Wed 10:24:00 PM 2.7720 -72.6985 166° South  Level FlightAware Approximate
Wed 10:25:00 PM 2.6479 -72.6668 166° South  Level FlightAware Approximate
Wed 10:26:00 PM 2.5239 -72.6352 166° South  Level FlightAware Approximate
Wed 10:27:00 PM 2.4133 -72.5713 149° Southeast  Level FlightAware Approximate
Wed 10:28:00 PM 2.3035 -72.5054 149° Southeast  Level FlightAware Approximate
Wed 10:29:00 PM 2.1938 -72.4395 149° Southeast  Level FlightAware Approximate
Wed 10:30:00 PM 2.0840 -72.3736 149° Southeast  Level FlightAware Approximate
Wed 10:31:00 PM 1.9742 -72.3077 149° Southeast  Level FlightAware Approximate
Wed 10:32:00 PM 1.8644 -72.2419 149° Southeast  Level FlightAware Approximate
Wed 10:33:00 PM 1.7546 -72.1760 149° Southeast  Level FlightAware Approximate
Wed 10:34:00 PM 1.6449 -72.1102 149° Southeast  Level FlightAware Approximate
Wed 10:35:00 PM 1.5351 -72.0443 149° Southeast  Level FlightAware Approximate
Wed 10:36:00 PM 1.4253 -71.9785 149° Southeast  Level FlightAware Approximate
Wed 10:37:00 PM 1.3136 -71.9162 155° Southeast  Level FlightAware Approximate
Wed 10:38:00 PM 1.1978 -71.8615 155° Southeast  Level FlightAware Approximate
Wed 10:39:00 PM 1.0821 -71.8069 155° Southeast  Level FlightAware Approximate
Wed 10:40:00 PM 0.9663 -71.7522 155° Southeast  Level FlightAware Approximate
Wed 10:41:00 PM 0.8506 -71.6976 155° Southeast  Level FlightAware Approximate
Wed 10:42:00 PM 0.7348 -71.6430 155° Southeast  Level FlightAware Approximate
Wed 10:43:00 PM 0.6190 -71.5883 155° Southeast  Level FlightAware Approximate
Wed 10:44:00 PM 0.5033 -71.5337 155° Southeast  Level FlightAware Approximate
Wed 10:45:00 PM 0.3875 -71.4791 155° Southeast  Level FlightAware Approximate
Wed 10:46:00 PM 0.2717 -71.4245 155° Southeast  Level FlightAware Approximate
Wed 10:47:00 PM 0.1560 -71.3698 155° Southeast  Level FlightAware Approximate
Wed 10:48:00 PM 0.0402 -71.3152 155° Southeast  Level FlightAware Approximate
Wed 10:49:00 PM -0.0755 -71.2606 155° Southeast  Level FlightAware Approximate
Wed 10:50:00 PM -0.1913 -71.2059 155° Southeast  Level FlightAware Approximate
Wed 10:51:00 PM -0.3070 -71.1511 155° Southeast  Level FlightAware Approximate
Wed 10:52:00 PM -0.4227 -71.0963 155° Southeast  Level FlightAware Approximate
Wed 10:53:00 PM -0.5383 -71.0415 155° Southeast  Level FlightAware Approximate
Wed 10:54:00 PM -0.6540 -70.9867 155° Southeast  Level FlightAware Approximate
Wed 10:55:00 PM -0.7697 -70.9319 155° Southeast  Level FlightAware Approximate
Wed 10:56:00 PM -0.8854 -70.8771 155° Southeast  Level FlightAware Approximate
Wed 10:57:00 PM -1.0011 -70.8223 155° Southeast  Level FlightAware Approximate
Wed 10:58:00 PM -1.1168 -70.7675 155° Southeast  Level FlightAware Approximate
Wed 10:59:00 PM -1.2324 -70.7127 155° Southeast  Level FlightAware Approximate
Wed 11:00:00 PM -1.3481 -70.6579 155° Southeast  Level FlightAware Approximate
Wed 11:01:00 PM -1.4638 -70.6030 155° Southeast  Level FlightAware Approximate
Wed 11:02:00 PM -1.5795 -70.5482 155° Southeast  Level FlightAware Approximate
Wed 11:03:00 PM -1.6951 -70.4934 155° Southeast  Level FlightAware Approximate
Wed 11:04:00 PM -1.8108 -70.4385 155° Southeast  Level FlightAware Approximate
Wed 11:05:00 PM -1.9265 -70.3837 155° Southeast  Level FlightAware Approximate
Wed 11:06:00 PM -2.0422 -70.3288 155° Southeast  Level FlightAware Approximate
Wed 11:07:00 PM -2.1578 -70.2740 155° Southeast  Level FlightAware Approximate
Wed 11:08:00 PM -2.2735 -70.2191 155° Southeast  Level FlightAware Approximate
Wed 11:09:00 PM -2.3891 -70.1642 155° Southeast  Level FlightAware Approximate
Wed 11:10:00 PM -2.5048 -70.1093 155° Southeast  Level FlightAware Approximate
Wed 11:11:00 PM -2.6205 -70.0544 155° Southeast  Level FlightAware Approximate
Wed 11:12:00 PM -2.7399 -70.0144 177° South  Level FlightAware Approximate
Wed 11:13:00 PM -2.8677 -70.0073 177° South  Level FlightAware Approximate
Wed 11:14:00 PM -2.9955 -70.0001 177° South  Level FlightAware Approximate
Wed 11:15:00 PM -3.1233 -69.9929 177° South  Level FlightAware Approximate
Wed 11:16:00 PM -3.2511 -69.9857 177° South  Level FlightAware Approximate
Wed 11:17:00 PM -3.3790 -69.9786 177° South  Level FlightAware Approximate
Wed 11:18:00 PM -3.5068 -69.9714 177° South  Level FlightAware Approximate
Wed 11:19:00 PM -3.6346 -69.9642 177° South  Level FlightAware Approximate
Wed 11:20:00 PM -3.7624 -69.9570 177° South  Level FlightAware Approximate
Wed 11:21:00 PM -3.8902 -69.9498 177° South  Level FlightAware Approximate
Wed 11:22:00 PM -4.0180 -69.9426 177° South  Level FlightAware Approximate
Wed 11:23:00 PM -4.1458 -69.9354 177° South  Level FlightAware Approximate
Wed 11:24:00 PM -4.2647 -69.8938 154° Southeast  Level FlightAware Approximate
Wed 11:25:00 PM -4.3798 -69.8378 154° Southeast  Level FlightAware Approximate
Wed 11:26:00 PM -4.4950 -69.7818 154° Southeast  Level FlightAware Approximate
Wed 11:27:00 PM -4.6102 -69.7257 154° Southeast  Level FlightAware Approximate
Wed 11:28:00 PM -4.7254 -69.6697 154° Southeast  Level FlightAware Approximate
Wed 11:29:00 PM -4.8405 -69.6136 154° Southeast  Level FlightAware Approximate
Wed 11:30:00 PM -4.9557 -69.5575 154° Southeast  Level FlightAware Approximate
Wed 11:31:00 PM -5.0708 -69.5014 154° Southeast  Level FlightAware Approximate
Wed 11:32:00 PM -5.1860 -69.4453 154° Southeast  Level FlightAware Approximate
Wed 11:33:00 PM -5.3011 -69.3891 154° Southeast  Level FlightAware Approximate
Wed 11:34:00 PM -5.4163 -69.3329 154° Southeast  Level FlightAware Approximate
Wed 11:35:00 PM -5.5314 -69.2767 154° Southeast  Level FlightAware Approximate
Wed 11:36:00 PM -5.6465 -69.2205 154° Southeast  Level FlightAware Approximate
Wed 11:37:00 PM -5.7617 -69.1643 154° Southeast  Level FlightAware Approximate
Wed 11:38:00 PM -5.8768 -69.1080 154° Southeast  Level FlightAware Approximate
Wed 11:39:00 PM -5.9919 -69.0517 154° Southeast  Level FlightAware Approximate
Wed 11:40:00 PM -6.1070 -68.9954 154° Southeast  Level FlightAware Approximate
Wed 11:41:00 PM -6.2221 -68.9390 154° Southeast  Level FlightAware Approximate
Wed 11:42:00 PM -6.3372 -68.8827 154° Southeast  Level FlightAware Approximate
Wed 11:43:00 PM -6.4523 -68.8263 154° Southeast  Level FlightAware Approximate
Wed 11:44:00 PM -6.5673 -68.7699 154° Southeast  Level FlightAware Approximate
Wed 11:45:00 PM -6.6824 -68.7134 154° Southeast  Level FlightAware Approximate
Wed 11:46:00 PM -6.7975 -68.6570 154° Southeast  Level FlightAware Approximate
Wed 11:47:00 PM -6.9125 -68.6005 154° Southeast  Level FlightAware Approximate
Wed 11:48:00 PM -7.0276 -68.5440 154° Southeast  Level FlightAware Approximate
Wed 11:49:00 PM -7.1427 -68.4874 154° Southeast  Level FlightAware Approximate
Wed 11:50:00 PM -7.2577 -68.4308 154° Southeast  Level FlightAware Approximate
Wed 11:51:00 PM -7.3727 -68.3743 154° Southeast  Level FlightAware Approximate
Wed 11:52:00 PM -7.4878 -68.3176 154° Southeast  Level FlightAware Approximate
Wed 11:53:00 PM -7.6028 -68.2609 154° Southeast  Level FlightAware Approximate
Wed 11:54:00 PM -7.7178 -68.2042 154° Southeast  Level FlightAware Approximate
Wed 11:55:00 PM -7.8328 -68.1475 154° Southeast  Level FlightAware Approximate
Wed 11:56:00 PM -7.9478 -68.0908 154° Southeast  Level FlightAware Approximate
Wed 11:57:00 PM -8.0628 -68.0340 154° Southeast  Level FlightAware Approximate
Wed 11:58:00 PM -8.1778 -67.9772 154° Southeast  Level FlightAware Approximate
Wed 11:59:00 PM -8.2928 -67.9203 154° Southeast  Level FlightAware Approximate
Thu 12:00:00 AM -8.4077 -67.8634 154° Southeast  Level FlightAware Approximate
Thu 12:01:00 AM -8.5227 -67.8065 154° Southeast  Level FlightAware Approximate
Thu 12:02:00 AM -8.6376 -67.7495 154° Southeast  Level FlightAware Approximate
Thu 12:03:00 AM -8.7526 -67.6926 154° Southeast  Level FlightAware Approximate
Thu 12:04:00 AM -8.8675 -67.6355 154° Southeast  Level FlightAware Approximate
Thu 12:05:00 AM -8.9824 -67.5785 154° Southeast  Level FlightAware Approximate
Thu 12:06:00 AM -9.0973 -67.5214 154° Southeast  Level FlightAware Approximate
Thu 12:07:00 AM -9.2122 -67.4642 154° Southeast  Level FlightAware Approximate
Thu 12:08:00 AM -9.3271 -67.4071 154° Southeast  Level FlightAware Approximate
Thu 12:09:00 AM -9.4420 -67.3499 154° Southeast  Level FlightAware Approximate
Thu 12:10:00 AM -9.5569 -67.2926 154° Southeast  Level FlightAware Approximate
Thu 12:11:00 AM -9.6718 -67.2353 154° Southeast  Level FlightAware Approximate
Thu 12:12:00 AM -9.7866 -67.1780 154° Southeast  Level FlightAware Approximate
Thu 12:13:00 AM -9.9015 -67.1206 154° Southeast  Level FlightAware Approximate
Thu 12:14:00 AM -10.0163 -67.0632 154° Southeast  Level FlightAware Approximate
Thu 12:15:00 AM -10.1312 -67.0058 154° Southeast  Level FlightAware Approximate
Thu 12:16:00 AM -10.2460 -66.9483 154° Southeast  Level FlightAware Approximate
Thu 12:17:00 AM -10.3608 -66.8908 154° Southeast  Level FlightAware Approximate
Thu 12:18:00 AM -10.4756 -66.8332 154° Southeast  Level FlightAware Approximate
Thu 12:19:00 AM -10.5904 -66.7756 154° Southeast  Level FlightAware Approximate
Thu 12:20:00 AM -10.7052 -66.7179 154° Southeast  Level FlightAware Approximate
Thu 12:21:00 AM -10.8199 -66.6602 154° Southeast  Level FlightAware Approximate
Thu 12:22:00 AM -10.9347 -66.6025 154° Southeast  Level FlightAware Approximate
Thu 12:23:00 AM -11.0494 -66.5447 154° Southeast  Level FlightAware Approximate
Thu 12:24:00 AM -11.1642 -66.4869 154° Southeast  Level FlightAware Approximate
Thu 12:25:00 AM -11.2789 -66.4290 154° Southeast  Level FlightAware Approximate
Thu 12:26:00 AM -11.3936 -66.3711 154° Southeast  Level FlightAware Approximate
Thu 12:27:00 AM -11.5083 -66.3131 154° Southeast  Level FlightAware Approximate
Thu 12:28:00 AM -11.6230 -66.2551 154° Southeast  Level FlightAware Approximate
Thu 12:29:00 AM -11.7377 -66.1970 154° Southeast  Level FlightAware Approximate
Thu 12:30:00 AM -11.8524 -66.1389 154° Southeast  Level FlightAware Approximate
Thu 12:31:00 AM -11.9670 -66.0807 154° Southeast  Level FlightAware Approximate
Thu 12:32:00 AM -12.0817 -66.0225 154° Southeast  Level FlightAware Approximate
Thu 12:33:00 AM -12.1963 -65.9643 154° Southeast  Level FlightAware Approximate
Thu 12:34:00 AM -12.3109 -65.9060 154° Southeast  Level FlightAware Approximate
Thu 12:35:00 AM -12.4255 -65.8476 154° Southeast  Level FlightAware Approximate
Thu 12:36:00 AM -12.5401 -65.7892 154° Southeast  Level FlightAware Approximate
Thu 12:37:00 AM -12.6547 -65.7307 154° Southeast  Level FlightAware Approximate
Thu 12:38:00 AM -12.7693 -65.6722 154° Southeast  Level FlightAware Approximate
Thu 12:39:00 AM -12.8838 -65.6136 154° Southeast  Level FlightAware Approximate
Thu 12:40:00 AM -12.9984 -65.5550 153° Southeast  Level FlightAware Approximate
Thu 12:41:00 AM -13.1129 -65.4963 153° Southeast  Level FlightAware Approximate
Thu 12:42:00 AM -13.2274 -65.4376 153° Southeast  Level FlightAware Approximate
Thu 12:43:00 AM -13.3419 -65.3788 153° Southeast  Level FlightAware Approximate
Thu 12:44:00 AM -13.4564 -65.3199 153° Southeast  Level FlightAware Approximate
Thu 12:45:00 AM -13.5709 -65.2610 153° Southeast  Level FlightAware Approximate
Thu 12:46:00 AM -13.6854 -65.2020 153° Southeast  Level FlightAware Approximate
Thu 12:47:00 AM -13.7998 -65.1430 153° Southeast  Level FlightAware Approximate
Thu 12:48:00 AM -13.9143 -65.0840 153° Southeast  Level FlightAware Approximate
Thu 12:49:00 AM -14.0287 -65.0248 153° Southeast  Level FlightAware Approximate
Thu 12:50:00 AM -14.1431 -64.9656 153° Southeast  Level FlightAware Approximate
Thu 12:51:00 AM -14.2575 -64.9064 153° Southeast  Level FlightAware Approximate
Thu 12:52:00 AM -14.3719 -64.8471 153° Southeast  Level FlightAware Approximate
Thu 12:53:00 AM -14.4862 -64.7877 153° Southeast  Level FlightAware Approximate
Thu 12:54:00 AM -14.6006 -64.7283 153° Southeast  Level FlightAware Approximate
Thu 12:55:00 AM -14.7149 -64.6688 153° Southeast  Level FlightAware Approximate
Thu 12:56:00 AM -14.8292 -64.6092 153° Southeast  Level FlightAware Approximate
Thu 12:57:00 AM -14.9435 -64.5496 153° Southeast  Level FlightAware Approximate
Thu 12:58:00 AM -15.0578 -64.4899 153° Southeast  Level FlightAware Approximate
Thu 12:59:00 AM -15.1721 -64.4301 153° Southeast  Level FlightAware Approximate
Thu 01:00:00 AM -15.2863 -64.3703 153° Southeast  Level FlightAware Approximate
Thu 01:01:00 AM -15.4006 -64.3104 153° Southeast  Level FlightAware Approximate
Thu 01:02:00 AM -15.5148 -64.2505 153° Southeast  Level FlightAware Approximate
Thu 01:03:00 AM -15.6290 -64.1905 153° Southeast  Level FlightAware Approximate
Thu 01:04:00 AM -15.7432 -64.1304 153° Southeast  Level FlightAware Approximate
Thu 01:05:00 AM -15.8574 -64.0703 153° Southeast  Level FlightAware Approximate
Thu 01:06:00 AM -15.9715 -64.0100 153° Southeast  Level FlightAware Approximate
Thu 01:07:00 AM -16.0857 -63.9498 153° Southeast  Level FlightAware Approximate
Thu 01:08:00 AM -16.1998 -63.8894 153° Southeast  Level FlightAware Approximate
Thu 01:09:00 AM -16.3139 -63.8290 153° Southeast  Level FlightAware Approximate
Thu 01:10:00 AM -16.4280 -63.7685 153° Southeast  Level FlightAware Approximate
Thu 01:11:00 AM -16.5421 -63.7079 153° Southeast  Level FlightAware Approximate
Thu 01:12:00 AM -16.6561 -63.6473 153° Southeast  Level FlightAware Approximate
Thu 01:13:00 AM -16.7702 -63.5866 153° Southeast  Level FlightAware Approximate
Thu 01:14:00 AM -16.8842 -63.5258 153° Southeast  Level FlightAware Approximate
Thu 01:15:00 AM -16.9982 -63.4650 153° Southeast  Level FlightAware Approximate
Thu 01:16:00 AM -17.1122 -63.4040 153° Southeast  Level FlightAware Approximate
Thu 01:17:00 AM -17.2261 -63.3430 153° Southeast  Level FlightAware Approximate
Thu 01:18:00 AM -17.3401 -63.2820 153° Southeast  Level FlightAware Approximate
Thu 01:19:00 AM -17.4540 -63.2208 153° Southeast  Level FlightAware Approximate
Thu 01:20:00 AM -17.5679 -63.1596 153° Southeast  Level FlightAware Approximate
Thu 01:21:00 AM -17.6896 -63.1261 175° South  Level FlightAware Approximate
Thu 01:22:00 AM -17.8170 -63.1136 175° South  Level FlightAware Approximate
Thu 01:23:00 AM -17.9444 -63.1010 175° South  Level FlightAware Approximate
Thu 01:24:00 AM -18.0719 -63.0884 175° South  Level FlightAware Approximate
Thu 01:25:00 AM -18.1993 -63.0757 175° South  Level FlightAware Approximate
Thu 01:26:00 AM -18.3268 -63.0631 175° South  Level FlightAware Approximate
Thu 01:27:00 AM -18.4542 -63.0504 175° South  Level FlightAware Approximate
Thu 01:28:00 AM -18.5816 -63.0378 175° South  Level FlightAware Approximate
Thu 01:29:00 AM -18.7091 -63.0251 175° South  Level FlightAware Approximate
Thu 01:30:00 AM -18.8365 -63.0123 175° South  Level FlightAware Approximate
Thu 01:31:00 AM -18.9640 -62.9996 175° South  Level FlightAware Approximate
Thu 01:32:00 AM -19.0914 -62.9868 175° South  Level FlightAware Approximate
Thu 01:33:00 AM -19.2188 -62.9740 175° South  Level FlightAware Approximate
Thu 01:34:00 AM -19.3463 -62.9613 175° South  Level FlightAware Approximate
Thu 01:35:00 AM -19.4737 -62.9484 175° South  Level FlightAware Approximate
Thu 01:36:00 AM -19.6011 -62.9356 175° South  Level FlightAware Approximate
Thu 01:37:00 AM -19.7285 -62.9227 175° South  Level FlightAware Approximate
Thu 01:38:00 AM -19.8560 -62.9099 175° South  Level FlightAware Approximate
Thu 01:39:00 AM -19.9834 -62.8969 175° South  Level FlightAware Approximate
Thu 01:40:00 AM -20.1108 -62.8840 175° South  Level FlightAware Approximate
Thu 01:41:00 AM -20.2383 -62.8711 175° South  Level FlightAware Approximate
Thu 01:42:00 AM -20.3657 -62.8581 175° South  Level FlightAware Approximate
Thu 01:43:00 AM -20.4931 -62.8451 175° South  Level FlightAware Approximate
Thu 01:44:00 AM -20.6205 -62.8321 175° South  Level FlightAware Approximate
Thu 01:45:00 AM -20.7480 -62.8191 175° South  Level FlightAware Approximate
Thu 01:46:00 AM -20.8754 -62.8060 175° South  Level FlightAware Approximate
Thu 01:47:00 AM -21.0028 -62.7930 175° South  Level FlightAware Approximate
Thu 01:48:00 AM -21.1302 -62.7799 175° South  Level FlightAware Approximate
Thu 01:49:00 AM -21.2577 -62.7668 175° South  Level FlightAware Approximate
Thu 01:50:00 AM -21.3851 -62.7536 175° South  Level FlightAware Approximate
Thu 01:51:00 AM -21.5125 -62.7405 175° South  Level FlightAware Approximate
Thu 01:52:00 AM -21.6399 -62.7273 175° South  Level FlightAware Approximate
Thu 01:53:00 AM -21.7673 -62.7141 175° South  Level FlightAware Approximate
Thu 01:54:00 AM -21.8947 -62.7008 174° South  Level FlightAware Approximate
Thu 01:55:00 AM -22.0221 -62.6876 174° South  Level FlightAware Approximate
Thu 01:56:00 AM -22.1495 -62.6743 174° South  Level FlightAware Approximate
Thu 01:57:00 AM -22.2770 -62.6610 174° South  Level FlightAware Approximate
Thu 01:58:00 AM -22.4044 -62.6477 174° South  Level FlightAware Approximate
Thu 01:59:00 AM -22.5318 -62.6343 174° South  Level FlightAware Approximate
Thu 02:00:00 AM -22.6592 -62.6209 174° South  Level FlightAware Approximate
Thu 02:01:00 AM -22.7866 -62.6075 174° South  Level FlightAware Approximate
Thu 02:02:00 AM -22.9140 -62.5941 174° South  Level FlightAware Approximate
Thu 02:03:00 AM -23.0414 -62.5806 174° South  Level FlightAware Approximate
Thu 02:04:00 AM -23.1688 -62.5672 174° South  Level FlightAware Approximate
Thu 02:05:00 AM -23.2962 -62.5536 174° South  Level FlightAware Approximate
Thu 02:06:00 AM -23.4236 -62.5401 174° South  Level FlightAware Approximate
Thu 02:07:00 AM -23.5510 -62.5266 174° South  Level FlightAware Approximate
Thu 02:08:00 AM -23.6784 -62.5130 174° South  Level FlightAware Approximate
Thu 02:09:00 AM -23.8058 -62.4994 174° South  Level FlightAware Approximate
Thu 02:10:00 AM -23.9332 -62.4857 174° South  Level FlightAware Approximate
Thu 02:11:00 AM -24.0606 -62.4721 174° South  Level FlightAware Approximate
Thu 02:12:00 AM -24.1880 -62.4584 174° South  Level FlightAware Approximate
Thu 02:13:00 AM -24.3154 -62.4447 174° South  Level FlightAware Approximate
Thu 02:14:00 AM -24.4428 -62.4309 174° South  Level FlightAware Approximate
Thu 02:15:00 AM -24.5702 -62.4171 174° South  Level FlightAware Approximate
Thu 02:16:00 AM -24.6975 -62.4033 174° South  Level FlightAware Approximate
Thu 02:17:00 AM -24.8249 -62.3895 174° South  Level FlightAware Approximate
Thu 02:18:00 AM -24.9523 -62.3756 174° South  Level FlightAware Approximate
Thu 02:19:00 AM -25.0797 -62.3618 174° South  Level FlightAware Approximate
Thu 02:20:00 AM -25.2071 -62.3479 174° South  Level FlightAware Approximate
Thu 02:21:00 AM -25.3345 -62.3339 174° South  Level FlightAware Approximate
Thu 02:22:00 AM -25.4618 -62.3199 174° South  Level FlightAware Approximate
Thu 02:23:00 AM -25.5892 -62.3059 174° South  Level FlightAware Approximate
Thu 02:24:00 AM -25.7166 -62.2919 174° South  Level FlightAware Approximate
Thu 02:25:00 AM -25.8440 -62.2778 174° South  Level FlightAware Approximate
Thu 02:26:00 AM -25.9714 -62.2637 174° South  Level FlightAware Approximate
Thu 02:27:00 AM -26.0987 -62.2496 174° South  Level FlightAware Approximate
Thu 02:28:00 AM -26.2261 -62.2355 174° South  Level FlightAware Approximate
Thu 02:29:00 AM -26.3535 -62.2213 174° South  Level FlightAware Approximate
Thu 02:30:00 AM -26.4809 -62.2071 174° South  Level FlightAware Approximate
Thu 02:31:00 AM -26.6082 -62.1928 174° South  Level FlightAware Approximate
Thu 02:32:00 AM -26.7356 -62.1785 174° South  Level FlightAware Approximate
Thu 02:33:00 AM -26.8629 -62.1642 174° South  Level FlightAware Approximate
Thu 02:34:00 AM -26.9903 -62.1499 174° South  Level FlightAware Approximate
Thu 02:35:00 AM -27.1177 -62.1355 174° South  Level FlightAware Approximate
Thu 02:36:00 AM -27.2450 -62.1211 174° South  Level FlightAware Approximate
Thu 02:37:00 AM -27.3724 -62.1066 174° South  Level FlightAware Approximate
Thu 02:38:00 AM -27.4998 -62.0922 174° South  Level FlightAware Approximate
Thu 02:39:00 AM -27.6271 -62.0776 174° South  Level FlightAware Approximate
Thu 02:40:00 AM -27.7545 -62.0631 174° South  Level FlightAware Approximate
Thu 02:41:00 AM -27.8818 -62.0485 174° South  Level FlightAware Approximate
Thu 02:42:00 AM -28.0092 -62.0339 174° South  Level FlightAware Approximate
Thu 02:43:00 AM -28.1365 -62.0192 174° South  Level FlightAware Approximate
Thu 02:44:00 AM -28.2639 -62.0046 174° South  Level FlightAware Approximate
Thu 02:45:00 AM -28.3912 -61.9898 174° South  Level FlightAware Approximate
Thu 02:46:00 AM -28.5186 -61.9751 174° South  Level FlightAware Approximate
Thu 02:47:00 AM -28.6459 -61.9603 174° South  Level FlightAware Approximate
Thu 02:48:00 AM -28.7733 -61.9455 174° South  Level FlightAware Approximate
Thu 02:49:00 AM -28.9006 -61.9306 174° South  Level FlightAware Approximate
Thu 02:50:00 AM -29.0279 -61.9157 174° South  Level FlightAware Approximate
Thu 02:51:00 AM -29.1553 -61.9008 174° South  Level FlightAware Approximate
Thu 02:52:00 AM -29.2826 -61.8858 174° South  Level FlightAware Approximate
Thu 02:53:00 AM -29.4099 -61.8708 174° South  Level FlightAware Approximate
Thu 02:54:00 AM -29.5373 -61.8558 174° South  Level FlightAware Approximate
Thu 02:55:00 AM -29.6646 -61.8407 174° South  Level FlightAware Approximate
Thu 02:56:00 AM -29.7919 -61.8256 174° South  Level FlightAware Approximate
Thu 02:57:00 AM -29.9131 -61.7875 151° Southeast  Level FlightAware Approximate
Thu 02:58:00 AM -30.0255 -61.7168 151° Southeast  Level FlightAware Approximate
Thu 02:59:00 AM -30.1378 -61.6459 151° Southeast  Level FlightAware Approximate
Thu 03:00:00 AM -30.2502 -61.5748 151° Southeast  Level FlightAware Approximate
Thu 03:01:00 AM -30.3624 -61.5036 151° Southeast  Level FlightAware Approximate
Thu 03:02:00 AM -30.4747 -61.4322 151° Southeast  Level FlightAware Approximate
Thu 03:03:00 AM -30.5869 -61.3607 151° Southeast  Level FlightAware Approximate
Thu 03:04:00 AM -30.6990 -61.2890 151° Southeast  Level FlightAware Approximate
Thu 03:05:00 AM -30.8111 -61.2171 151° Southeast  Level FlightAware Approximate
Thu 03:06:00 AM -30.9232 -61.1451 151° Southeast  Level FlightAware Approximate
Thu 03:07:00 AM -31.0352 -61.0729 151° Southeast  Level FlightAware Approximate
Thu 03:08:00 AM -31.1472 -61.0005 151° Southeast  Level FlightAware Approximate
Thu 03:09:00 AM -31.2592 -60.9279 151° Southeast  Level FlightAware Approximate
Thu 03:10:00 AM -31.3711 -60.8552 151° Southeast  Level FlightAware Approximate
Thu 03:11:00 AM -31.4830 -60.7823 151° Southeast  Level FlightAware Approximate
Thu 03:12:00 AM -31.5948 -60.7092 151° Southeast  Level FlightAware Approximate
Thu 03:13:00 AM -31.7066 -60.6360 151° Southeast  Level FlightAware Approximate
Thu 03:14:00 AM -31.8184 -60.5626 151° Southeast  Level FlightAware Approximate
Thu 03:15:00 AM -31.9301 -60.4889 151° Southeast  Level FlightAware Approximate
Thu 03:16:00 AM -32.0417 -60.4152 151° Southeast  Level FlightAware Approximate
Thu 03:17:00 AM -32.1534 -60.3412 151° Southeast  Level FlightAware Approximate
Thu 03:18:00 AM -32.2649 -60.2671 151° Southeast  Level FlightAware Approximate
Thu 03:19:00 AM -32.3765 -60.1927 151° Southeast  Level FlightAware Approximate
Thu 03:20:00 AM -32.4879 -60.1182 151° Southeast  Level FlightAware Approximate
Thu 03:21:00 AM -32.5994 -60.0435 151° Southeast  Level FlightAware Approximate
Thu 03:22:00 AM -32.7108 -59.9687 151° Southeast  Level FlightAware Approximate
Thu 03:23:00 AM -32.8222 -59.8936 150° Southeast  Level FlightAware Approximate
Thu 03:24:00 AM -32.9335 -59.8183 150° Southeast  Level FlightAware Approximate
Thu 03:25:00 AM -33.0447 -59.7429 150° Southeast  Level FlightAware Approximate
Thu 03:26:00 AM -33.1581 -59.6719 153° Southeast  Level FlightAware Approximate
Thu 03:27:00 AM -33.2692 -59.5974 140° Southeast  Level FlightAware Approximate
Thu 03:28:00 AM -33.3800 -59.5214 153° Southeast  Level FlightAware Approximate
Thu 03:29:00 AM -33.4938 -59.4513 153° Southeast  Level FlightAware Approximate
Thu 03:30:00 AM -33.6050 -59.3755 148° Southeast  Level FlightAware Approximate
Thu 03:31:00 AM -33.7136 -59.2940 148° Southeast  Level FlightAware Approximate
Thu 03:32:00 AM -33.8241 -59.2163 151° Southeast  Level FlightAware Approximate
Thu 03:33:00 AM -33.9355 -59.1405 151° Southeast  Level FlightAware Approximate
Thu 03:34:00 AM -34.0469 -59.0644 151° Southeast  Level FlightAware Approximate
Thu 03:35:00 AM -34.1586 -58.9888 151° Southeast  Level FlightAware Approximate
Thu 03:36:00 AM -34.2706 -58.9138 149° Southeast  Level FlightAware Approximate
Thu 03:37:00 AM -34.3803 -58.8341 149° Southeast  Level FlightAware Approximate
Thu 03:38:00 AM -34.4910 -58.7561 151° Southeast  Level FlightAware Approximate
Thu 03:39:00 AM -34.6019 -58.6796 121° Southeast  Level FlightAware Approximate
Thu 03:40:00 AM -34.7072 -58.6029 148° Southeast  Level FlightAware Approximate
Thu 03:41:00 AM -34.8147 -58.5183 147° Southeast  Level FlightAware Approximate
Thu 03:42:00 AM -34.8167 -58.5167 147° Southeast  Level FlightAware Approximate
Thu 03:43:00 AM -34.8235 -58.5288 147° Southeast  Level Estimated
Thu 03:44:00 AM -34.8235 -58.5288 147° Southeast  Level Estimated
Thu 03:45:00 AM -34.8235 -58.5288 147° Southeast  Level Estimated
Thu 03:46:00 AM -34.8235 -58.5288 147° Southeast  Level Estimated
Thu 03:47:00 AM -34.8235 -58.5288 147° Southeast  Level Estimated
Thu 03:48:00 AM -34.8235 -58.5288 147° Southeast  Level Estimated
Thu 03:49:00 AM -34.8235 -58.5288 147° Southeast  Level Estimated
Thu 03:50:00 AM -34.8235 -58.5288 147° Southeast  Level Estimated
Thu 03:51:00 AM -34.8235 -58.5288 147° Southeast  Level Estimated
Thu 03:52:00 AM -34.8235 -58.5288 147° Southeast  Level Estimated

Login

Don't have an account? Register now (free) for customized features, flight alerts, and more!